Time;durP1;ratioP1;P1;durP2;ratioP2;P2;SDS_P1;SDS_P2;PMS_P1;PMS_P2;Temp;Humidity;BMP_temperature;BMP_pressure;BME280_temperature;BME280_humidity;BME280_pressure;Samples;Min_cycle;Max_cycle;Signal;HPM_P1;HPM_P2
2023/01/06 00:02:20;;;;;;;30.20;8.13;;;10.80;95.80;;;;;;5094303;27;20900;-89
2023/01/06 00:04:45;;;;;;;29.20;7.10;;;10.90;95.90;;;;;;5110692;27;20407;-89
2023/01/06 00:07:11;;;;;;;29.77;8.60;;;10.80;95.80;;;;;;5094953;27;20422;-88
2023/01/06 00:09:37;;;;;;;29.07;7.67;;;10.80;95.80;;;;;;5110659;27;20436;-88
2023/01/06 00:12:03;;;;;;;30.20;7.90;;;10.90;95.70;;;;;;5094288;27;20402;-88
2023/01/06 00:14:28;;;;;;;32.77;8.07;;;10.80;95.70;;;;;;5093269;27;20406;-88
2023/01/06 00:16:54;;;;;;;32.80;7.73;;;10.80;95.70;;;;;;5110712;27;20395;-89
2023/01/06 00:19:20;;;;;;;27.92;6.50;;;10.90;95.70;;;;;;5111356;27;20935;-88
2023/01/06 00:21:45;;;;;;;30.10;7.10;;;10.80;95.60;;;;;;5110990;27;20410;-89
2023/01/06 00:24:11;;;;;;;27.20;7.00;;;10.70;95.60;;;;;;5094181;27;20591;-88
2023/01/06 00:26:37;;;;;;;29.95;6.63;;;11.10;95.60;;;;;;5093325;27;20402;-89
2023/01/06 00:29:03;;;;;;;25.58;5.93;;;10.90;95.50;;;;;;5094010;27;20467;-90
2023/01/06 00:31:29;;;;;;;24.30;5.90;;;10.90;95.50;;;;;;5093721;27;20403;-87
2023/01/06 00:33:56;;;;;;;22.35;4.78;;;11.00;95.30;;;;;;5110574;27;20471;-88
2023/01/06 00:36:22;;;;;;;22.63;5.72;;;10.90;95.20;;;;;;5093891;27;20808;-89
2023/01/06 00:38:49;;;;;;;23.52;5.50;;;10.90;95.20;;;;;;5093040;27;20390;-89
2023/01/06 00:44:01;;;;;;;20.50;4.80;;;11.10;95.20;;;;;;5109748;27;20399;-88
2023/01/06 00:46:28;;;;;;;20.58;3.47;;;10.90;95.10;;;;;;5093350;27;20399;-89
2023/01/06 00:48:55;;;;;;;14.00;3.05;;;10.90;94.90;;;;;;5092962;27;20423;-88
2023/01/06 00:51:20;;;;;;;17.52;3.20;;;10.90;94.90;;;;;;5093421;27;20748;-88
2023/01/06 00:53:46;;;;;;;17.50;3.10;;;10.90;94.80;;;;;;5109952;27;20590;-89
2023/01/06 00:56:12;;;;;;;16.25;3.10;;;10.90;94.70;;;;;;5091791;28;20463;-89
2023/01/06 00:58:37;;;;;;;15.13;3.00;;;10.90;94.70;;;;;;5092775;27;20928;-89
2023/01/06 01:01:05;;;;;;;14.80;2.50;;;10.70;94.60;;;;;;5092515;27;20407;-89
2023/01/06 01:03:32;;;;;;;14.15;2.67;;;10.90;94.50;;;;;;5110389;27;20727;-90
2023/01/06 01:06:03;;;;;;;12.20;2.25;;;10.90;94.60;;;;;;5109275;27;20402;-89
2023/01/06 01:08:29;;;;;;;12.05;3.00;;;11.00;94.50;;;;;;5109660;27;20431;-89
2023/01/06 01:11:01;;;;;;;13.15;2.03;;;10.80;94.60;;;;;;5110075;27;20406;-88
2023/01/06 01:13:26;;;;;;;11.73;2.33;;;11.10;94.40;;;;;;5092468;27;20412;-88
2023/01/06 01:15:52;;;;;;;16.60;3.30;;;10.60;94.30;;;;;;5093176;27;20972;-88
2023/01/06 01:18:17;;;;;;;15.20;2.38;;;10.90;94.40;;;;;;5092002;27;20900;-90
2023/01/06 01:20:45;;;;;;;12.90;2.30;;;10.80;94.30;;;;;;5092920;27;20402;-88
2023/01/06 01:23:11;;;;;;;11.65;2.22;;;10.70;94.20;;;;;;5109724;27;20490;-91
2023/01/06 01:25:36;;;;;;;11.57;2.03;;;10.70;94.20;;;;;;5126478;27;20434;-89
2023/01/06 01:28:02;;;;;;;13.55;2.60;;;10.70;94.30;;;;;;5126176;27;20426;-88
2023/01/06 01:30:28;;;;;;;12.93;2.57;;;10.70;94.40;;;;;;5125818;27;20387;-88
2023/01/06 01:32:54;;;;;;;12.57;2.70;;;10.70;94.40;;;;;;5109918;27;20391;-89
2023/01/06 01:35:19;;;;;;;11.32;2.40;;;10.70;94.30;;;;;;5091686;27;20395;-89
2023/01/06 01:37:45;;;;;;;15.17;2.70;;;10.60;94.40;;;;;;5093150;27;20481;-89
2023/01/06 01:40:10;;;;;;;14.68;2.38;;;10.60;94.30;;;;;;5108721;27;20391;-89
2023/01/06 01:42:36;;;;;;;10.63;2.90;;;10.60;94.30;;;;;;5092501;27;20478;-86
2023/01/06 01:45:05;;;;;;;13.07;3.10;;;10.60;94.30;;;;;;5088216;28;20412;-90
2023/01/06 01:47:37;;;;;;;13.55;3.65;;;10.60;94.40;;;;;;5105141;28;20482;-89
2023/01/06 01:50:30;;;;;;;9.97;2.73;;;10.80;94.50;;;;;;5089147;28;20493;-87
2023/01/06 01:53:09;;;;;;;9.85;2.90;;;10.60;94.30;;;;;;5098545;28;20416;-90
2023/01/06 01:55:37;;;;;;;12.35;3.75;;;10.60;94.30;;;;;;5105545;28;20400;-89
2023/01/06 01:58:18;;;;;;;11.95;3.83;;;10.60;94.40;;;;;;5105879;28;20759;-89
2023/01/06 02:00:44;;;;;;;14.15;4.13;;;10.60;94.20;;;;;;5088417;28;20472;-88
2023/01/06 02:03:12;;;;;;;13.67;4.50;;;10.60;94.20;;;;;;5088703;28;20462;-90
2023/01/06 02:05:41;;;;;;;13.93;4.38;;;10.60;94.20;;;;;;5088268;28;20456;-88
2023/01/06 02:08:19;;;;;;;9.95;3.85;;;10.60;94.20;;;;;;5087966;28;20790;-88
2023/01/06 02:10:44;;;;;;;14.30;4.20;;;10.60;94.20;;;;;;5088072;28;20404;-89
2023/01/06 02:13:10;;;;;;;13.77;4.13;;;10.60;94.10;;;;;;5088696;28;20400;-88
2023/01/06 02:15:36;;;;;;;12.95;4.43;;;10.90;94.20;;;;;;5105191;28;20407;-87
2023/01/06 02:18:17;;;;;;;11.77;4.50;;;10.60;94.00;;;;;;5105106;28;20755;-88
2023/01/06 02:20:48;;;;;;;11.52;3.30;;;10.60;94.00;;;;;;5088736;28;20418;-89
2023/01/06 02:23:32;;;;;;;12.67;3.90;;;10.60;93.90;;;;;;5104926;28;20928;-88
2023/01/06 02:26:41;;;;;;;11.57;3.37;;;10.60;93.90;;;;;;5105115;28;20404;-88
2023/01/06 02:29:13;;;;;;;10.57;3.58;;;10.60;93.70;;;;;;5087965;28;21068;-88
2023/01/06 02:32:22;;;;;;;11.13;2.80;;;10.60;93.80;;;;;;5104489;28;20415;-89
2023/01/06 02:35:13;;;;;;;13.50;3.80;;;10.60;93.60;;;;;;5050870;28;20515;-89
2023/01/06 02:37:59;;;;;;;11.30;2.42;;;10.60;93.70;;;;;;5088154;28;20397;-88
2023/01/06 02:40:44;;;;;;;9.33;1.93;;;10.60;93.50;;;;;;5087614;28;20469;-90
2023/01/06 02:43:12;;;;;;;11.05;2.40;;;10.60;93.40;;;;;;5088533;28;20405;-89
2023/01/06 02:46:09;;;;;;;7.13;1.45;;;10.60;93.40;;;;;;5083863;28;20502;-88
2023/01/06 02:48:50;;;;;;;8.95;1.50;;;10.60;93.40;;;;;;5067530;28;20430;-90
2023/01/06 02:51:22;;;;;;;12.15;2.05;;;10.60;93.40;;;;;;5068458;28;20426;-88
2023/01/06 02:53:59;;;;;;;8.70;1.87;;;10.60;93.30;;;;;;5066909;28;20410;-89
2023/01/06 02:56:31;;;;;;;7.55;1.52;;;10.60;93.20;;;;;;5067726;28;20402;-90
2023/01/06 02:59:06;;;;;;;6.55;1.63;;;10.60;93.30;;;;;;5068092;28;20757;-88
2023/01/06 03:01:40;;;;;;;7.55;1.52;;;10.60;93.30;;;;;;5084219;28;20479;-89
2023/01/06 03:04:11;;;;;;;8.98;1.50;;;10.70;93.10;;;;;;5068243;28;20607;-86
2023/01/06 03:06:43;;;;;;;7.75;1.70;;;10.60;93.40;;;;;;5067089;28;20398;-89
2023/01/06 03:09:13;;;;;;;6.57;1.90;;;10.70;93.10;;;;;;5084369;28;20429;-88
2023/01/06 03:11:42;;;;;;;9.43;2.20;;;10.70;93.20;;;;;;5067429;28;20405;-89
2023/01/06 03:14:31;;;;;;;7.32;2.47;;;10.70;93.20;;;;;;5067470;28;20409;-88
2023/01/06 03:16:57;;;;;;;8.48;3.08;;;10.70;93.30;;;;;;5067621;28;20452;-88
2023/01/06 03:19:24;;;;;;;6.53;3.67;;;10.60;93.20;;;;;;5083522;28;20462;-87
2023/01/06 03:21:50;;;;;;;8.15;3.85;;;10.60;93.30;;;;;;5071733;28;20405;-87
2023/01/06 03:24:16;;;;;;;8.03;4.43;;;10.60;93.30;;;;;;5070742;28;20444;-89
2023/01/06 03:26:44;;;;;;;7.53;3.77;;;10.70;93.40;;;;;;5071651;28;21158;-89
2023/01/06 03:29:12;;;;;;;8.02;4.80;;;10.60;93.40;;;;;;5087798;28;20921;-88
2023/01/06 03:31:57;;;;;;;7.53;4.10;;;10.60;93.40;;;;;;5070824;28;20402;-89
2023/01/06 03:34:39;;;;;;;8.35;4.60;;;10.60;93.30;;;;;;5071117;28;20416;-89
2023/01/06 03:37:49;;;;;;;8.35;4.70;;;10.80;93.30;;;;;;5070265;28;20421;-89
2023/01/06 03:40:49;;;;;;;10.18;5.82;;;10.70;93.20;;;;;;5084549;28;20402;-89
2023/01/06 03:43:21;;;;;;;8.43;5.55;;;10.70;93.20;;;;;;5071235;28;20483;-89
2023/01/06 03:46:24;;;;;;;7.90;6.50;;;10.70;93.10;;;;;;5090791;27;20414;-89
2023/01/06 03:49:42;;;;;;;10.32;7.55;;;10.70;93.20;;;;;;5042529;27;20517;-88
2023/01/06 03:52:20;;;;;;;10.88;8.07;;;10.80;93.40;;;;;;5073926;27;20415;-89
2023/01/06 03:55:01;;;;;;;11.30;8.27;;;10.70;93.30;;;;;;5128394;27;20522;-88
2023/01/06 03:57:32;;;;;;;10.68;8.27;;;10.70;93.10;;;;;;5094117;27;20403;-88
2023/01/06 04:00:07;;;;;;;9.75;8.60;;;10.70;93.10;;;;;;5128356;27;20482;-89
2023/01/06 04:02:35;;;;;;;9.82;7.47;;;10.70;93.20;;;;;;5092879;27;20486;-88
2023/01/06 04:05:02;;;;;;;9.82;7.25;;;10.70;93.00;;;;;;5111505;27;20409;-88
2023/01/06 04:07:28;;;;;;;9.75;6.97;;;10.70;93.00;;;;;;5093565;27;20422;-88
2023/01/06 04:09:54;;;;;;;7.10;6.03;;;10.70;92.90;;;;;;5128514;27;20417;-88
2023/01/06 04:12:37;;;;;;;8.17;6.70;;;10.70;92.90;;;;;;5093781;27;20394;-90
2023/01/06 04:15:15;;;;;;;7.25;5.97;;;10.70;92.80;;;;;;5110764;27;20415;-90
2023/01/06 04:17:42;;;;;;;7.75;5.93;;;10.80;92.70;;;;;;5093723;27;20972;-89
2023/01/06 04:20:12;;;;;;;7.40;4.85;;;10.70;92.70;;;;;;5092758;27;20395;-88
2023/01/06 04:22:37;;;;;;;6.75;4.85;;;10.80;92.60;;;;;;5111081;27;20426;-89
2023/01/06 04:25:04;;;;;;;7.35;4.53;;;10.70;92.50;;;;;;5110249;27;20578;-88
2023/01/06 04:27:29;;;;;;;6.73;4.30;;;10.80;92.40;;;;;;5093958;27;21001;-90
2023/01/06 04:29:55;;;;;;;6.90;4.13;;;10.80;92.30;;;;;;5093588;27;20406;-89
2023/01/06 04:32:21;;;;;;;6.25;3.75;;;10.80;92.30;;;;;;5093590;27;20456;-89
2023/01/06 04:34:46;;;;;;;4.53;3.17;;;10.80;92.10;;;;;;5093784;27;20417;-90
2023/01/06 04:37:12;;;;;;;4.07;2.30;;;10.80;92.00;;;;;;5109844;27;20493;-89
2023/01/06 04:39:38;;;;;;;4.25;2.20;;;10.80;91.80;;;;;;5093801;27;20909;-89
2023/01/06 04:42:03;;;;;;;4.00;2.10;;;10.90;91.80;;;;;;5093318;27;21159;-89
2023/01/06 04:44:29;;;;;;;3.97;1.60;;;11.00;91.90;;;;;;5106688;28;20461;-87
2023/01/06 04:46:54;;;;;;;3.95;1.60;;;10.90;91.60;;;;;;5089539;28;20412;-88
2023/01/06 04:49:20;;;;;;;4.17;1.67;;;10.90;91.50;;;;;;5090146;28;20813;-89
2023/01/06 04:51:46;;;;;;;4.65;2.08;;;10.90;91.40;;;;;;5090165;28;20491;-87
2023/01/06 04:54:11;;;;;;;3.27;1.50;;;11.00;91.50;;;;;;5106650;28;20408;-89
2023/01/06 04:56:37;;;;;;;4.13;1.70;;;10.90;91.30;;;;;;5090316;28;20404;-89
2023/01/06 04:59:02;;;;;;;5.13;1.60;;;11.10;91.40;;;;;;5088989;28;20443;-88
2023/01/06 05:01:28;;;;;;;3.53;1.73;;;10.90;91.40;;;;;;5107085;28;20404;-90
2023/01/06 05:03:54;;;;;;;5.53;2.00;;;11.10;91.50;;;;;;5106150;28;20408;-88
2023/01/06 05:06:20;;;;;;;5.50;2.00;;;11.00;91.50;;;;;;5106783;28;20396;-88
2023/01/06 05:08:46;;;;;;;4.20;1.63;;;10.90;91.60;;;;;;5106179;28;20451;-88
2023/01/06 05:11:15;;;;;;;5.47;2.00;;;11.00;91.60;;;;;;5106097;28;20475;-89
2023/01/06 05:13:41;;;;;;;3.80;1.85;;;11.00;91.70;;;;;;5089696;28;20883;-88
2023/01/06 05:16:09;;;;;;;4.53;1.60;;;10.90;91.60;;;;;;5088405;28;20407;-90
2023/01/06 05:18:34;;;;;;;5.30;2.00;;;10.90;91.60;;;;;;5089420;28;20450;-90
2023/01/06 05:21:00;;;;;;;4.15;1.75;;;10.90;91.70;;;;;;5088591;28;20396;-90
2023/01/06 05:23:26;;;;;;;5.17;2.07;;;11.00;91.80;;;;;;5106492;28;20767;-89
2023/01/06 05:25:52;;;;;;;5.23;1.83;;;11.20;92.10;;;;;;5089145;28;20743;-89
2023/01/06 05:28:18;;;;;;;5.63;2.35;;;10.80;92.10;;;;;;5105782;28;20482;-89
2023/01/06 05:30:43;;;;;;;5.13;2.50;;;10.80;92.40;;;;;;5089435;28;20918;-89
2023/01/06 05:33:09;;;;;;;4.97;2.88;;;10.80;92.70;;;;;;5089052;28;20450;-90
2023/01/06 05:35:35;;;;;;;4.80;3.10;;;10.80;93.00;;;;;;5089523;28;20495;-88
2023/01/06 05:38:01;;;;;;;4.78;4.18;;;10.70;93.30;;;;;;5088200;28;20986;-89
2023/01/06 05:40:27;;;;;;;6.93;4.40;;;10.60;93.70;;;;;;5106303;28;20413;-89
2023/01/06 05:42:54;;;;;;;6.70;5.28;;;10.60;94.10;;;;;;5105063;28;20892;-91
2023/01/06 05:45:21;;;;;;;7.78;5.13;;;10.50;94.30;;;;;;5106388;28;20483;-90
2023/01/06 05:47:47;;;;;;;6.80;5.33;;;10.40;94.60;;;;;;5088993;28;20432;-87
2023/01/06 05:50:12;;;;;;;8.37;5.60;;;10.30;94.80;;;;;;5089171;28;20412;-89
2023/01/06 05:52:38;;;;;;;10.63;7.03;;;10.30;95.20;;;;;;5089187;28;20400;-88
2023/01/06 05:55:04;;;;;;;9.60;7.00;;;10.20;95.40;;;;;;5105227;28;20432;-89
2023/01/06 05:57:33;;;;;;;10.73;7.27;;;10.20;95.60;;;;;;5089729;28;20405;-89
2023/01/06 05:59:59;;;;;;;9.52;7.35;;;10.10;95.70;;;;;;5104687;28;20432;-90
2023/01/06 06:02:25;;;;;;;10.57;7.80;;;10.10;95.90;;;;;;5105821;28;20444;-87
2023/01/06 06:04:50;;;;;;;12.73;9.03;;;10.40;96.10;;;;;;5088360;28;20388;-89
2023/01/06 06:07:16;;;;;;;12.00;7.75;;;10.00;96.10;;;;;;5105865;28;20516;-89
2023/01/06 06:09:42;;;;;;;10.90;8.90;;;9.90;96.30;;;;;;5088854;28;20404;-89
2023/01/06 06:12:07;;;;;;;12.80;9.13;;;9.90;96.30;;;;;;5088793;28;20448;-89
2023/01/06 06:14:33;;;;;;;11.32;9.23;;;10.00;96.30;;;;;;5105440;28;20491;-90
2023/01/06 06:16:58;;;;;;;11.80;9.10;;;9.90;96.40;;;;;;5105066;28;20416;-90
2023/01/06 06:19:24;;;;;;;7.28;6.32;;;9.90;96.50;;;;;;5088835;28;20941;-88
2023/01/06 06:21:51;;;;;;;10.57;9.33;;;9.90;96.50;;;;;;5104589;28;20411;-87
2023/01/06 06:24:16;;;;;;;11.27;8.70;;;9.90;96.50;;;;;;5088565;28;20404;-89
2023/01/06 06:26:42;;;;;;;12.25;10.02;;;9.90;96.50;;;;;;5088634;28;20759;-88
2023/01/06 06:29:08;;;;;;;13.20;11.13;;;9.90;96.50;;;;;;5105514;28;20420;-89
2023/01/06 06:31:33;;;;;;;11.98;10.77;;;10.00;96.60;;;;;;5088570;28;20775;-89
2023/01/06 06:34:01;;;;;;;14.55;11.57;;;10.00;96.60;;;;;;5088256;28;20487;-89
2023/01/06 06:36:27;;;;;;;15.30;12.50;;;10.00;96.60;;;;;;5088490;28;20679;-90
2023/01/06 06:38:53;;;;;;;12.75;11.45;;;10.00;96.60;;;;;;5100845;28;20398;-90
2023/01/06 06:41:20;;;;;;;16.75;14.20;;;10.20;96.70;;;;;;5105648;28;20457;-92
2023/01/06 06:43:48;;;;;;;16.25;14.25;;;10.00;96.80;;;;;;5089834;28;20393;-91
2023/01/06 06:46:14;;;;;;;14.65;12.32;;;9.80;96.80;;;;;;5109373;28;20762;-92
2023/01/06 06:48:40;;;;;;;15.05;12.63;;;10.00;96.90;;;;;;5092191;28;20422;-89
2023/01/06 06:51:09;;;;;;;16.88;13.90;;;10.10;97.00;;;;;;5091383;28;20398;-91
2023/01/06 06:53:35;;;;;;;19.23;14.50;;;10.20;97.10;;;;;;5108968;27;20402;-91
2023/01/06 06:56:02;;;;;;;16.47;14.47;;;10.00;97.10;;;;;;5093818;27;20391;-89
2023/01/06 06:58:27;;;;;;;19.67;15.07;;;10.10;97.10;;;;;;5096648;27;20471;-91
2023/01/06 07:00:53;;;;;;;15.40;13.13;;;10.20;97.20;;;;;;5112733;27;20943;-89
2023/01/06 07:03:19;;;;;;;14.40;12.30;;;10.00;97.40;;;;;;5095790;27;20403;-94
2023/01/06 07:05:47;;;;;;;18.35;13.77;;;10.10;97.10;;;;;;5095462;27;20406;-90
2023/01/06 07:08:13;;;;;;;12.43;11.07;;;9.90;97.10;;;;;;5111812;27;20424;-92
2023/01/06 07:10:39;;;;;;;15.38;11.82;;;9.90;97.10;;;;;;5102278;27;20398;-90
2023/01/06 07:13:05;;;;;;;15.20;12.67;;;9.90;97.10;;;;;;5112369;27;20394;-91
2023/01/06 07:15:30;;;;;;;15.10;12.02;;;9.90;97.20;;;;;;5095868;27;20403;-89
2023/01/06 07:18:04;;;;;;;17.13;13.57;;;9.90;97.20;;;;;;5095148;27;20455;-91
2023/01/06 07:20:30;;;;;;;10.55;7.22;;;9.90;97.20;;;;;;5095805;27;20757;-90
2023/01/06 07:22:56;;;;;;;14.60;4.55;;;9.80;97.10;;;;;;5095961;27;20990;-91
2023/01/06 07:25:22;;;;;;;11.65;2.95;;;9.80;97.00;;;;;;5112860;27;20438;-90
2023/01/06 07:27:56;;;;;;;12.88;2.78;;;9.90;96.90;;;;;;5095981;27;20422;-91
2023/01/06 07:30:22;;;;;;;12.43;1.77;;;9.70;96.90;;;;;;5095433;27;20412;-93
2023/01/06 07:32:49;;;;;;;11.05;1.45;;;9.70;96.50;;;;;;5096319;27;20394;-90
2023/01/06 07:35:15;;;;;;;14.63;1.40;;;9.70;96.30;;;;;;5112474;27;20471;-92
2023/01/06 07:37:40;;;;;;;13.33;1.40;;;9.40;96.10;;;;;;5096148;27;20972;-89
2023/01/06 07:40:07;;;;;;;12.87;1.80;;;9.40;96.20;;;;;;5095617;27;20502;-91
2023/01/06 07:42:34;;;;;;;11.57;1.20;;;9.30;96.10;;;;;;5095008;27;20485;-91
2023/01/06 07:45:00;;;;;;;9.45;1.08;;;9.20;96.10;;;;;;5095699;27;20399;-90
2023/01/06 07:47:25;;;;;;;9.05;0.70;;;9.00;95.90;;;;;;5094736;27;20433;-93
2023/01/06 07:49:51;;;;;;;8.53;0.60;;;8.90;95.90;;;;;;5113217;27;20441;-89
2023/01/06 07:52:17;;;;;;;7.80;0.70;;;8.80;95.70;;;;;;5094625;27;20434;-89
2023/01/06 07:54:42;;;;;;;7.33;0.50;;;8.70;95.70;;;;;;5112443;27;20398;-91
2023/01/06 07:57:08;;;;;;;10.03;0.73;;;8.60;95.80;;;;;;5112109;27;20482;-90
2023/01/06 07:59:33;;;;;;;7.90;0.47;;;8.50;95.80;;;;;;5095237;27;20812;-91
2023/01/06 08:01:59;;;;;;;4.93;0.33;;;8.50;95.70;;;;;;5095425;27;20405;-91
2023/01/06 08:04:24;;;;;;;7.82;0.43;;;8.40;95.70;;;;;;5095054;27;20402;-89
2023/01/06 08:06:50;;;;;;;5.70;0.40;;;8.30;95.60;;;;;;5094614;27;20410;-90
2023/01/06 08:09:16;;;;;;;6.20;0.38;;;8.20;95.60;;;;;;5094090;27;21091;-90
2023/01/06 08:11:41;;;;;;;8.18;0.30;;;8.20;95.60;;;;;;5094991;27;20931;-88
2023/01/06 08:14:07;;;;;;;7.07;0.30;;;8.10;95.70;;;;;;5111091;27;20398;-89
2023/01/06 08:16:32;;;;;;;7.80;0.60;;;8.00;95.70;;;;;;5111535;27;20467;-90
2023/01/06 08:18:58;;;;;;;8.73;0.60;;;8.00;95.90;;;;;;5111136;27;20402;-88
2023/01/06 08:21:23;;;;;;;8.73;0.50;;;8.00;95.90;;;;;;5094711;27;20440;-90
2023/01/06 08:23:49;;;;;;;9.75;0.60;;;7.90;95.90;;;;;;5094717;27;20411;-90
2023/01/06 08:26:16;;;;;;;8.70;0.50;;;7.90;95.90;;;;;;5093735;27;20398;-90
2023/01/06 08:28:43;;;;;;;10.18;0.80;;;7.90;95.90;;;;;;5111215;27;20531;-90
2023/01/06 08:31:11;;;;;;;10.02;0.77;;;7.80;95.90;;;;;;5110784;27;20398;-90
2023/01/06 08:33:36;;;;;;;8.98;0.90;;;7.80;95.90;;;;;;5094493;27;20390;-89
2023/01/06 08:36:04;;;;;;;10.83;0.83;;;7.70;95.90;;;;;;5093849;27;20426;-89
2023/01/06 08:38:32;;;;;;;11.90;0.90;;;7.70;96.00;;;;;;5111000;27;20482;-88
2023/01/06 08:40:58;;;;;;;11.40;0.73;;;7.70;96.00;;;;;;5110949;27;20411;-89
2023/01/06 08:43:24;;;;;;;13.25;0.70;;;7.70;95.90;;;;;;5110824;27;20399;-90
2023/01/06 08:45:50;;;;;;;12.27;0.90;;;7.70;96.00;;;;;;5094307;27;20762;-89
2023/01/06 08:48:17;;;;;;;15.55;0.80;;;7.70;96.20;;;;;;5110220;27;20431;-90
2023/01/06 08:50:43;;;;;;;13.30;1.15;;;7.70;96.20;;;;;;5111246;27;20422;-89
2023/01/06 08:53:09;;;;;;;15.13;1.10;;;7.70;96.10;;;;;;5093208;27;20395;-88
2023/01/06 08:55:41;;;;;;;12.75;1.02;;;7.70;96.10;;;;;;5093960;27;20394;-88
2023/01/06 08:58:08;;;;;;;16.38;1.10;;;7.70;96.20;;;;;;5094031;27;20454;-89
2023/01/06 09:00:35;;;;;;;13.57;1.35;;;7.70;96.10;;;;;;5092998;27;20522;-89
2023/01/06 09:03:01;;;;;;;15.30;1.03;;;7.80;96.20;;;;;;5093719;27;20433;-89
2023/01/06 09:05:26;;;;;;;17.57;1.07;;;7.80;96.20;;;;;;5093126;27;20443;-89
2023/01/06 09:07:53;;;;;;;10.82;1.17;;;7.80;96.10;;;;;;5093316;27;20426;-90
2023/01/06 09:10:19;;;;;;;16.63;1.02;;;8.10;96.20;;;;;;5109561;27;20441;-89
2023/01/06 09:12:46;;;;;;;13.60;0.90;;;7.90;96.20;;;;;;5093267;27;20406;-89
2023/01/06 09:15:12;;;;;;;19.60;1.00;;;8.00;96.20;;;;;;5110160;27;20618;-89
2023/01/06 09:17:38;;;;;;;11.20;0.70;;;7.90;96.10;;;;;;5092488;27;20758;-88
2023/01/06 09:20:04;;;;;;;13.27;0.80;;;8.00;96.00;;;;;;5093849;27;20463;-89
2023/01/06 09:22:30;;;;;;;14.57;1.77;;;8.10;96.00;;;;;;5092602;27;21213;-90
2023/01/06 09:24:56;;;;;;;11.73;1.00;;;8.20;96.00;;;;;;5110904;27;20424;-89
2023/01/06 09:27:21;;;;;;;14.50;1.10;;;8.30;95.90;;;;;;5092361;27;20461;-89
2023/01/06 09:29:47;;;;;;;13.47;1.07;;;8.40;95.90;;;;;;5093340;27;20445;-89
2023/01/06 09:32:13;;;;;;;11.10;1.15;;;8.40;95.70;;;;;;5109248;27;20406;-89
2023/01/06 09:34:38;;;;;;;14.37;1.30;;;8.50;95.50;;;;;;5093028;27;20399;-89
2023/01/06 09:37:04;;;;;;;14.03;0.87;;;8.60;95.50;;;;;;5092969;27;20414;-88
2023/01/06 09:39:29;;;;;;;15.57;0.93;;;8.60;95.50;;;;;;5092756;27;20430;-89
2023/01/06 09:42:13;;;;;;;13.47;1.20;;;8.70;95.70;;;;;;5093507;27;20411;-88
2023/01/06 09:44:47;;;;;;;13.07;1.45;;;8.70;95.30;;;;;;5105390;28;20447;-90
2023/01/06 09:47:16;;;;;;;13.52;1.30;;;8.80;95.20;;;;;;5106192;28;20483;-91
2023/01/06 09:49:50;;;;;;;9.93;1.00;;;8.90;95.50;;;;;;5088870;28;20401;-90
2023/01/06 09:52:35;;;;;;;11.48;1.15;;;8.90;95.20;;;;;;5106713;28;20972;-90
2023/01/06 09:55:38;;;;;;;12.43;0.95;;;9.00;94.80;;;;;;5114824;27;20507;-92
2023/01/06 09:58:11;;;;;;;13.03;0.93;;;9.00;95.00;;;;;;5082837;28;20453;-90
2023/01/06 10:00:48;;;;;;;13.63;1.27;;;9.10;95.10;;;;;;5089594;28;20400;-89
2023/01/06 10:03:26;;;;;;;11.02;1.13;;;9.20;94.70;;;;;;5089515;28;20393;-91
2023/01/06 10:06:16;;;;;;;10.88;1.08;;;9.40;94.50;;;;;;5105927;28;20397;-91
2023/01/06 10:09:16;;;;;;;11.80;1.23;;;9.40;94.70;;;;;;5089596;28;20454;-89
2023/01/06 10:12:27;;;;;;;10.38;0.68;;;9.50;94.10;;;;;;5089557;28;20404;-91
2023/01/06 10:15:02;;;;;;;8.63;0.87;;;9.60;93.80;;;;;;5075967;28;20412;-92
2023/01/06 10:17:52;;;;;;;10.07;0.70;;;9.50;93.50;;;;;;5089414;28;20403;-90
2023/01/06 10:20:52;;;;;;;10.88;0.80;;;9.60;93.70;;;;;;5089318;28;20404;-89
2023/01/06 10:23:23;;;;;;;10.47;0.70;;;9.60;93.20;;;;;;5106146;28;20443;-91
2023/01/06 10:26:01;;;;;;;9.77;0.90;;;9.70;93.40;;;;;;5089503;28;20422;-91
2023/01/06 10:28:37;;;;;;;9.00;0.70;;;9.70;93.40;;;;;;5088370;28;20523;-89
2023/01/06 10:31:14;;;;;;;7.63;0.73;;;9.80;93.30;;;;;;5089409;28;20404;-91
2023/01/06 10:33:49;;;;;;;9.70;0.70;;;9.80;93.00;;;;;;5106179;28;20454;-90
2023/01/06 10:36:19;;;;;;;10.55;0.70;;;9.80;92.50;;;;;;5105365;28;20407;-91
2023/01/06 10:38:52;;;;;;;8.10;0.60;;;9.80;92.30;;;;;;5089612;28;20569;-90
2023/01/06 10:41:26;;;;;;;9.57;0.77;;;9.80;93.10;;;;;;5088113;28;20921;-90
2023/01/06 10:43:51;;;;;;;10.43;1.10;;;9.80;92.80;;;;;;5113423;28;20419;-90
2023/01/06 10:46:17;;;;;;;10.02;1.00;;;9.90;92.70;;;;;;5103982;27;20488;-89
2023/01/06 10:48:45;;;;;;;8.32;1.00;;;9.90;92.50;;;;;;5129247;27;20427;-90
2023/01/06 10:51:39;;;;;;;8.13;1.10;;;10.00;92.30;;;;;;5111826;27;20429;-92
2023/01/06 10:54:09;;;;;;;10.30;1.00;;;10.10;92.40;;;;;;5103295;27;20887;-90
2023/01/06 10:56:37;;;;;;;10.38;0.95;;;10.50;92.70;;;;;;5092134;28;20455;-89
2023/01/06 10:59:09;;;;;;;8.07;1.10;;;10.50;91.90;;;;;;5108915;27;20395;-89
2023/01/06 11:01:45;;;;;;;9.00;1.02;;;10.70;91.80;;;;;;5111999;27;20411;-89
2023/01/06 11:04:14;;;;;;;9.40;1.10;;;11.00;91.20;;;;;;5111786;27;20393;-91
2023/01/06 11:06:44;;;;;;;10.10;0.95;;;11.20;90.80;;;;;;5112174;27;20472;-90
2023/01/06 11:09:32;;;;;;;9.15;0.82;;;11.30;91.10;;;;;;5112178;27;20961;-91
2023/01/06 11:12:25;;;;;;;6.80;0.68;;;11.50;90.50;;;;;;5111839;27;20470;-90
2023/01/06 11:15:04;;;;;;;8.85;0.98;;;11.50;88.60;;;;;;5129005;27;20440;-91
2023/01/06 11:17:31;;;;;;;8.82;0.90;;;11.50;88.80;;;;;;5112513;27;20444;-91
2023/01/06 11:20:28;;;;;;;8.57;0.80;;;11.40;89.30;;;;;;5111108;27;20400;-92
2023/01/06 11:22:53;;;;;;;6.97;1.08;;;11.50;89.40;;;;;;5112578;27;20493;-92
2023/01/06 11:25:19;;;;;;;10.02;1.23;;;11.50;88.20;;;;;;5112105;27;20447;-92
2023/01/06 11:27:46;;;;;;;10.00;1.03;;;11.50;88.50;;;;;;5108493;27;20406;-94
2023/01/06 11:30:26;;;;;;;10.60;0.80;;;11.60;87.90;;;;;;5108685;27;20421;-93
2023/01/06 11:32:52;;;;;;;10.18;0.80;;;11.50;88.10;;;;;;5111018;27;20764;-92
2023/01/06 11:35:32;;;;;;;9.07;0.82;;;11.30;87.90;;;;;;5116969;28;20395;-93
2023/01/06 11:38:01;;;;;;;10.80;1.05;;;11.30;88.30;;;;;;5121812;27;20409;-91
2023/01/06 11:40:30;;;;;;;8.25;0.70;;;10.90;88.80;;;;;;5112013;27;20397;-91
2023/01/06 11:43:13;;;;;;;14.85;1.25;;;11.00;89.30;;;;;;5116102;27;20798;-90
2023/01/06 11:45:58;;;;;;;8.77;0.93;;;11.20;88.80;;;;;;5115041;27;20460;-91
2023/01/06 11:48:31;;;;;;;10.27;1.10;;;11.00;88.90;;;;;;5115775;27;20421;-88
2023/01/06 11:51:03;;;;;;;11.97;1.23;;;11.00;89.10;;;;;;5099050;27;20418;-91
2023/01/06 11:53:29;;;;;;;8.25;0.90;;;10.80;89.20;;;;;;5095594;27;20776;-90
2023/01/06 11:55:55;;;;;;;9.68;0.73;;;10.80;90.10;;;;;;5095693;27;20399;-90
2023/01/06 11:58:31;;;;;;;10.05;0.70;;;10.80;89.60;;;;;;5094885;27;20409;-89
2023/01/06 12:01:05;;;;;;;10.85;1.00;;;10.90;89.70;;;;;;5095376;27;20912;-90
2023/01/06 12:03:40;;;;;;;10.80;1.10;;;10.90;89.40;;;;;;5094309;27;20404;-90
2023/01/06 12:06:31;;;;;;;9.57;0.90;;;10.90;88.10;;;;;;5094933;27;20440;-91
2023/01/06 12:09:05;;;;;;;9.13;0.80;;;11.10;89.00;;;;;;5095033;27;20815;-90
2023/01/06 12:11:47;;;;;;;9.60;0.77;;;11.30;88.00;;;;;;5111050;27;20406;-91
2023/01/06 12:14:21;;;;;;;8.23;1.05;;;11.30;85.70;;;;;;5095091;27;20448;-89
2023/01/06 12:17:04;;;;;;;8.47;0.50;;;11.30;85.80;;;;;;5093959;27;20426;-91
2023/01/06 12:19:53;;;;;;;12.80;0.97;;;11.30;85.60;;;;;;5094214;27;20414;-93
2023/01/06 12:22:37;;;;;;;8.48;1.08;;;11.30;86.80;;;;;;5094579;27;20409;-89
2023/01/06 12:25:05;;;;;;;10.27;0.80;;;11.40;86.50;;;;;;5094220;27;20406;-90
2023/01/06 12:28:00;;;;;;;10.52;1.00;;;11.30;85.70;;;;;;5095262;27;20434;-91
2023/01/06 12:30:35;;;;;;;8.25;0.88;;;11.10;85.50;;;;;;5094516;27;20409;-92
2023/01/06 12:33:10;;;;;;;10.57;1.33;;;11.00;85.90;;;;;;5094112;27;20449;-91
2023/01/06 12:35:39;;;;;;;11.57;1.33;;;11.00;87.10;;;;;;5112207;27;20934;-91
2023/01/06 12:38:36;;;;;;;8.65;1.27;;;11.10;87.00;;;;;;5093760;27;20399;-90
2023/01/06 12:41:13;;;;;;;9.67;1.00;;;10.80;88.20;;;;;;5111622;27;20403;-93
2023/01/06 12:43:42;;;;;;;11.13;1.20;;;10.80;88.00;;;;;;5094771;27;20414;-92
2023/01/06 12:46:16;;;;;;;12.02;1.13;;;10.80;87.90;;;;;;5094394;27;20805;-90
2023/01/06 12:49:17;;;;;;;11.60;1.45;;;10.80;88.10;;;;;;5094349;27;20514;-91
2023/01/06 12:51:47;;;;;;;9.10;1.10;;;10.80;88.10;;;;;;5080757;27;20509;-91
2023/01/06 12:54:30;;;;;;;9.23;1.00;;;10.70;88.00;;;;;;5094414;27;20402;-90
2023/01/06 12:57:23;;;;;;;9.68;0.90;;;10.70;87.60;;;;;;5094931;27;20399;-91
2023/01/06 13:00:26;;;;;;;10.77;1.10;;;10.60;87.40;;;;;;5110689;27;20409;-91
2023/01/06 13:03:19;;;;;;;8.80;0.90;;;10.50;88.40;;;;;;5094421;27;20541;-90
2023/01/06 13:06:04;;;;;;;11.95;1.15;;;10.40;88.80;;;;;;5094775;27;20414;-90
2023/01/06 13:09:04;;;;;;;12.90;1.20;;;10.30;89.70;;;;;;5092900;27;20944;-91